Flag for Mexico

Past Weather in 19°25'48.9"N, 99°08'14.3"W, Mexico — Yesterday and Last 2 Weeks

Currently: 77 °F. Overcast. (Weather station: Mexico City / Licenci, Mexico). See more current weather

Past Weather in 19°25'48.9"N, 99°08'14.3"W — Graph

°F

19°25'48.9"N, 99°08'14.3"W Temperature Yesterday

Maximum temperature yesterday: 75 °F (at 2:51 pm)
Minimum temperature yesterday: 55 °F (at 3:43 am)
Average temperature yesterday: 64 °F

High & Low Weather Summary for the Past Weeks

 TemperatureHumidityPressure
High84 °F (Feb 28, 3:45 pm)87% (Mar 7, 5:45 am)30.41 "Hg (Mar 7, 5:45 am)
Low45 °F (Feb 21, 5:43 am)6% (Feb 24, 12:46 pm)29.54 "Hg (Feb 28, 8:41 pm)
Average66 °F34%30.15 "Hg
* Reported Feb 20 2:38 pm — Mar 7 2:43 pm, 19°25'48.9"N, 99°08'14.3"W. Weather by CustomWeather, © 2021

Note: Actual official high and low records may vary slightly from our data, if they occured in-between our weather recording intervals... More about our weather records

19°25'48.9"N, 99°08'14.3"W Weather History for the Previous 24 Hours

Scroll right to see more
 ConditionsComfort  
Time TempWeatherWind HumidityBarometerVisibility
2:43 pm
Sun, Mar 7
79 °FPartly sunny.5 mph12%29.80 "Hg8 mi
1:42 pm79 °FScattered clouds.7 mph16%30.29 "Hg8 mi
12:44 pm79 °FSunny.3 mph17%30.32 "Hg6 mi
12:26 pm79 °FSunny.3 mph21%30.34 "Hg6 mi
11:41 am75 °FSunny.3 mph29%29.83 "Hg6 mi
11:33 am73 °FSunny.6 mph31%30.37 "Hg6 mi
10:48 am68 °FSunny.3 mph40%30.38 "Hg5 mi
10:29 am66 °FSunny.No wind43%30.39 "Hg5 mi
9:51 am63 °FSunny.No wind49%30.39 "Hg5 mi
9:10 am59 °FSunny.No wind55%30.39 "Hg5 mi
8:21 am52 °FSunny.3 mph72%30.38 "Hg6 mi
7:46 am48 °FSunny.6 mph82%30.38 "Hg6 mi
6:50 am46 °FClear.7 mph82%30.36 "Hg5 mi
5:45 am46 °FClear.6 mph87%29.90 "Hg6 mi
4:40 am48 °FClear.7 mph82%30.32 "Hg7 mi
3:40 am48 °FClear.10 mph82%30.32 "Hg8 mi
2:50 am50 °FClear.6 mph76%29.88 "Hg8 mi
2:10 am50 °FClear.7 mph71%30.33 "Hg10 mi
1:22 am54 °FClear.6 mph63%30.34 "Hg10 mi
12:40 am57 °FClear.3 mph51%30.33 "Hg12 mi
12:20 am59 °FClear.3 mph51%30.33 "Hg12 mi
11:50 pm
Sat, Mar 6
63 °FClear.7 mph45%29.85 "Hg12 mi
10:45 pm64 °FPassing clouds.No wind37%30.32 "Hg12 mi
9:45 pm66 °FPartly cloudy.5 mph35%30.31 "Hg12 mi
8:50 pm66 °FPartly cloudy.3 mph37%29.81 "Hg12 mi
8:22 pm66 °FPartly cloudy.8 mph35%30.29 "Hg12 mi
5:49 pm72 °FCloudy.14 mph22%29.68 "Hg6 mi
5:23 pm70 °FCloudy.18 mph38%30.21 "Hg4 mi
4:48 pm73 °FCloudy.12 mph31%30.21 "Hg4 mi
Weather by CustomWeather, © 2021

See weather overview